Time;durP1;ratioP1;P1;durP2;ratioP2;P2;SDS_P1;SDS_P2;PMS_P1;PMS_P2;Temp;Humidity;BMP_temperature;BMP_pressure;BME280_temperature;BME280_humidity;BME280_pressure;Samples;Min_cycle;Max_cycle;Signal;HPM_P1;HPM_P2
2023/07/07 00:01:31;;;;;;;16.63;12.18;;;;;;;19.75;97.21;97586.91;10325343;28;20363;-51
2023/07/07 00:06:29;;;;;;;18.13;12.48;;;;;;;19.62;97.47;97594.41;10324664;28;20029;-50
2023/07/07 00:11:29;;;;;;;17.65;12.73;;;;;;;19.49;97.92;97590.56;10324899;28;20029;-48
2023/07/07 00:16:28;;;;;;;19.90;13.73;;;;;;;19.51;97.49;97597.47;10324795;28;20109;-51
2023/07/07 00:21:27;;;;;;;21.52;15.23;;;;;;;19.53;97.27;97597.38;10324212;28;20427;-48
2023/07/07 00:26:26;;;;;;;19.20;14.13;;;;;;;18.87;97.84;97498.22;10324688;28;20037;-52
2023/07/07 00:31:26;;;;;;;23.80;14.88;;;;;;;19.37;97.93;97613.78;10324132;28;20144;-49
2023/07/07 00:36:25;;;;;;;16.52;13.55;;;;;;;19.36;97.97;97606.78;10323996;28;20113;-51
2023/07/07 00:41:24;;;;;;;22.05;13.82;;;;;;;19.34;97.63;97595.47;10324279;28;20484;-51
2023/07/07 00:46:23;;;;;;;18.38;14.02;;;;;;;19.28;97.65;97603.63;10323587;28;20113;-51
2023/07/07 00:51:29;;;;;;;20.60;14.05;;;;;;;19.25;97.98;97606.34;10323474;28;20104;-50
2023/07/07 00:56:44;;;;;;;18.27;13.63;;;;;;;19.24;97.91;97599.38;10323733;28;20615;-51
2023/07/07 01:01:43;;;;;;;20.00;14.60;;;;;;;19.23;98.09;97600.31;10324036;28;20360;-51
2023/07/07 01:06:47;;;;;;;19.73;14.93;;;;;;;19.22;98.15;97598.56;10323842;28;20073;-48
2023/07/07 01:11:47;;;;;;;18.90;14.07;;;;;;;19.22;98.04;97603.84;10323111;28;20081;-49
2023/07/07 01:17:07;;;;;;;18.77;14.50;;;;;;;19.17;98.31;97600.53;10323947;28;20057;-51
2023/07/07 01:22:31;;;;;;;22.38;16.33;;;;;;;19.12;98.44;97590.19;10322891;28;20077;-51
2023/07/07 01:28:00;;;;;;;31.20;16.20;;;;;;;19.10;98.44;97592.00;10323816;28;20480;-49
2023/07/07 01:33:03;;;;;;;25.60;17.08;;;;;;;19.04;98.67;97600.13;10326646;28;20073;-51
2023/07/07 01:38:03;;;;;;;26.02;16.90;;;;;;;19.03;98.81;97594.00;10331180;28;20112;-50
2023/07/07 01:43:10;;;;;;;25.95;16.77;;;;;;;18.94;99.19;97591.72;10331179;28;20540;-49
2023/07/07 01:48:12;;;;;;;24.35;17.35;;;;;;;18.90;99.25;97592.78;10330651;28;20573;-51
2023/07/07 01:53:19;;;;;;;28.88;18.60;;;;;;;18.86;99.96;97588.53;10330329;28;20461;-51
2023/07/07 01:58:20;;;;;;;25.75;18.52;;;;;;;18.85;99.68;97594.69;10330409;28;20077;-49
2023/07/07 02:03:19;;;;;;;27.83;17.90;;;;;;;18.64;100.00;97564.75;10327842;28;20076;-51
2023/07/07 02:08:18;;;;;;;24.38;18.20;;;;;;;18.78;100.00;97582.69;10330376;28;20084;-49
2023/07/07 02:13:17;;;;;;;32.17;18.40;;;;;;;18.83;100.00;97596.56;10329390;28;20115;-48
2023/07/07 02:18:16;;;;;;;23.15;17.05;;;;;;;18.47;100.00;97533.84;10329465;28;20029;-51
2023/07/07 02:23:15;;;;;;;31.95;18.92;;;;;;;18.81;100.00;97585.22;10329338;28;20526;-50
2023/07/07 02:28:14;;;;;;;27.85;18.05;;;;;;;18.81;100.00;97593.13;10329362;28;20504;-50
2023/07/07 02:33:13;;;;;;;28.02;17.85;;;;;;;18.80;100.00;97594.00;10328824;28;20470;-50
2023/07/07 02:38:12;;;;;;;29.85;19.48;;;;;;;18.77;100.00;97600.25;10329747;28;20073;-51
2023/07/07 02:43:11;;;;;;;28.83;19.65;;;;;;;18.76;100.00;97600.28;10328530;28;20076;-50
2023/07/07 02:48:10;;;;;;;39.47;20.98;;;;;;;18.78;100.00;97606.34;10327762;28;20068;-51
2023/07/07 02:53:09;;;;;;;37.40;21.83;;;;;;;18.74;100.00;97610.03;10328138;28;20029;-50
2023/07/07 02:58:10;;;;;;;43.60;23.20;;;;;;;18.77;100.00;97615.16;10327807;28;20472;-51
2023/07/07 03:03:09;;;;;;;38.55;23.55;;;;;;;18.78;100.00;97616.88;10327773;28;20128;-50
2023/07/07 03:08:09;;;;;;;40.42;23.30;;;;;;;18.82;100.00;97613.22;10327737;28;20037;-48
2023/07/07 03:13:08;;;;;;;39.25;24.95;;;;;;;18.84;100.00;97608.75;10328122;28;20061;-49
2023/07/07 03:18:08;;;;;;;38.78;22.77;;;;;;;18.87;100.00;97613.91;10330251;28;20068;-50
2023/07/07 03:23:07;;;;;;;40.47;21.52;;;;;;;18.88;100.00;97610.38;10328391;28;20540;-51
2023/07/07 03:28:06;;;;;;;39.08;23.00;;;;;;;18.96;100.00;97617.97;10331157;28;20658;-49
2023/07/07 03:33:05;;;;;;;36.25;18.95;;;;;;;18.94;100.00;97620.66;10329679;28;20469;-51
2023/07/07 03:38:04;;;;;;;29.63;18.83;;;;;;;18.95;100.00;97621.53;10331203;28;20412;-50
2023/07/07 03:43:03;;;;;;;29.17;17.95;;;;;;;18.88;99.83;97626.16;10329571;28;20040;-47
2023/07/07 03:48:02;;;;;;;29.10;16.85;;;;;;;18.66;100.00;97622.53;10329728;28;20029;-51
2023/07/07 03:53:00;;;;;;;26.77;18.40;;;;;;;18.55;100.00;97629.03;10329586;28;20499;-50
2023/07/07 03:57:59;;;;;;;26.50;18.85;;;;;;;18.36;100.00;97588.53;10328326;28;20560;-51
2023/07/07 04:02:59;;;;;;;26.23;18.15;;;;;;;18.77;100.00;97636.19;10328636;28;20386;-50
2023/07/07 04:07:58;;;;;;;26.25;18.08;;;;;;;18.81;100.00;97632.56;10328956;28;20072;-51
2023/07/07 04:12:56;;;;;;;23.23;16.80;;;;;;;18.94;100.00;97631.16;10328586;28;20031;-49
2023/07/07 04:17:55;;;;;;;25.80;17.30;;;;;;;19.20;100.00;97637.22;10326288;28;20120;-50
2023/07/07 04:22:54;;;;;;;24.10;17.27;;;;;;;19.38;100.00;97636.53;10324600;28;20057;-51
2023/07/07 04:27:53;;;;;;;28.20;17.80;;;;;;;19.62;100.00;97632.13;10324408;28;20025;-51
2023/07/07 04:32:52;;;;;;;22.52;16.58;;;;;;;19.89;99.07;97625.84;10324545;28;20035;-48
2023/07/07 04:37:51;;;;;;;24.65;16.95;;;;;;;20.11;97.61;97626.66;10324559;28;20540;-50
2023/07/07 04:42:50;;;;;;;24.83;17.00;;;;;;;20.30;97.62;97624.09;10324966;28;20399;-51
2023/07/07 04:47:49;;;;;;;23.63;15.35;;;;;;;20.51;96.88;97611.81;10320918;28;20510;-48
2023/07/07 04:52:48;;;;;;;24.48;16.45;;;;;;;20.83;94.21;97633.28;10324419;28;20113;-50
2023/07/07 04:57:47;;;;;;;22.38;14.98;;;;;;;21.08;93.81;97636.53;10323993;28;20037;-49
2023/07/07 05:02:46;;;;;;;20.73;16.42;;;;;;;21.23;91.79;97650.00;10323465;28;20035;-51
2023/07/07 05:07:45;;;;;;;17.65;15.10;;;;;;;21.44;90.77;97642.88;10326431;28;20516;-51
2023/07/07 05:12:44;;;;;;;19.45;15.10;;;;;;;21.49;89.36;97641.72;10330359;28;20140;-51
2023/07/07 05:17:43;;;;;;;16.85;12.65;;;;;;;21.67;89.09;97647.06;10332275;28;20048;-49
2023/07/07 05:22:41;;;;;;;18.00;12.48;;;;;;;21.97;88.29;97642.09;10334941;28;20124;-49
2023/07/07 05:27:40;;;;;;;15.82;12.48;;;;;;;22.02;86.18;97634.00;10333716;28;20079;-48
2023/07/07 05:32:39;;;;;;;16.83;13.27;;;;;;;22.25;85.41;97643.38;10332936;28;20125;-50
2023/07/07 05:37:38;;;;;;;14.93;12.80;;;;;;;22.52;85.52;97643.78;10333399;28;20132;-48
2023/07/07 05:42:37;;;;;;;18.80;13.15;;;;;;;22.65;85.44;97639.59;10333381;28;20580;-48
2023/07/07 05:47:36;;;;;;;18.50;13.40;;;;;;;22.72;82.78;97651.56;10333956;28;20479;-49
2023/07/07 05:52:35;;;;;;;15.70;11.95;;;;;;;22.72;83.32;97651.56;10330873;28;20039;-50
2023/07/07 05:57:34;;;;;;;14.70;10.50;;;;;;;22.92;83.51;97642.59;10326336;28;20041;-51
2023/07/07 06:02:33;;;;;;;15.07;11.80;;;;;;;22.95;83.21;97650.41;10324614;28;20057;-51
2023/07/07 06:07:32;;;;;;;14.63;11.57;;;;;;;23.08;83.83;97641.81;10328389;28;20132;-52
2023/07/07 06:12:34;;;;;;;15.50;11.82;;;;;;;23.41;82.29;97645.25;10327932;28;20037;-52
2023/07/07 06:17:33;;;;;;;13.50;10.85;;;;;;;23.79;81.48;97650.25;10333868;28;20071;-49
2023/07/07 06:22:32;;;;;;;15.32;11.15;;;;;;;23.75;79.29;97597.56;10332366;28;20060;-52
2023/07/07 06:27:31;;;;;;;13.93;10.77;;;;;;;24.37;78.83;97638.13;10331856;28;20511;-52
2023/07/07 06:32:30;;;;;;;13.27;10.85;;;;;;;24.63;77.15;97641.03;10331903;28;20081;-51
2023/07/07 06:37:29;;;;;;;13.90;10.30;;;;;;;24.51;76.00;97609.94;10329396;28;20017;-53
2023/07/07 06:42:28;;;;;;;12.32;9.68;;;;;;;24.72;75.69;97637.84;10326229;28;20029;-51
2023/07/07 06:47:27;;;;;;;13.20;10.65;;;;;;;24.98;75.34;97644.25;10324869;28;20026;-53
2023/07/07 06:52:26;;;;;;;12.45;10.18;;;;;;;25.10;73.36;97645.28;10329541;28;20083;-52
2023/07/07 06:57:25;;;;;;;15.75;9.82;;;;;;;25.47;73.39;97653.63;10330706;28;20025;-49
2023/07/07 07:02:24;;;;;;;13.15;11.13;;;;;;;25.94;69.65;97644.44;10332973;28;20079;-54
2023/07/07 07:07:23;;;;;;;12.40;9.75;;;;;;;26.12;68.18;97647.72;10325170;28;20037;-49
2023/07/07 07:12:22;;;;;;;12.57;10.30;;;;;;;26.38;67.94;97655.81;10329083;28;20029;-52
2023/07/07 07:17:22;;;;;;;10.45;9.40;;;;;;;26.75;65.34;97652.34;10327806;28;20033;-51
2023/07/07 07:22:21;;;;;;;12.88;9.77;;;;;;;26.87;62.51;97658.66;10320960;28;20132;-52
2023/07/07 07:27:20;;;;;;;11.60;9.55;;;;;;;26.93;60.38;97655.59;10328635;28;20113;-49
2023/07/07 07:32:19;;;;;;;13.88;9.52;;;;;;;27.28;58.22;97670.91;10327045;28;20053;-52
2023/07/07 07:37:19;;;;;;;11.23;9.32;;;;;;;27.59;55.81;97661.63;10330139;28;20142;-53
2023/07/07 07:42:17;;;;;;;10.40;8.48;;;;;;;27.80;51.63;97661.88;10330002;28;20079;-50
2023/07/07 07:47:19;;;;;;;13.45;9.13;;;;;;;27.99;51.65;97664.06;10329330;28;20037;-51
2023/07/07 07:52:18;;;;;;;13.77;9.35;;;;;;;28.31;52.11;97666.16;10323223;28;20511;-52
2023/07/07 07:57:17;;;;;;;11.65;9.27;;;;;;;28.74;49.42;97675.47;10320916;28;20129;-51
2023/07/07 08:02:16;;;;;;;10.20;8.98;;;;;;;28.96;48.61;97666.66;10325510;28;20124;-52
2023/07/07 08:07:15;;;;;;;13.13;9.30;;;;;;;29.00;47.73;97665.44;10327955;28;20038;-52
2023/07/07 08:12:15;;;;;;;12.18;8.40;;;;;;;28.74;47.54;97643.44;10329460;28;20114;-51
2023/07/07 08:17:15;;;;;;;10.85;8.77;;;;;;;28.82;46.62;97662.38;10328313;28;20442;-50
2023/07/07 08:22:20;;;;;;;11.27;8.60;;;;;;;29.03;44.81;97679.41;10324041;28;20088;-53
2023/07/07 08:27:21;;;;;;;12.07;9.00;;;;;;;29.02;46.12;97677.72;10321033;28;20733;-51
2023/07/07 08:32:22;;;;;;;12.95;8.43;;;;;;;29.30;45.97;97678.28;10319063;28;20096;-52
2023/07/07 08:37:25;;;;;;;10.32;8.75;;;;;;;29.58;44.61;97686.75;10322344;28;20069;-53
2023/07/07 08:42:35;;;;;;;13.00;9.82;;;;;;;29.80;44.82;97686.75;10320692;28;20065;-51
2023/07/07 08:48:11;;;;;;;10.05;8.77;;;;;;;29.96;44.59;97677.53;10318867;28;20213;-52
2023/07/07 08:53:22;;;;;;;10.48;8.00;;;;;;;29.61;42.62;97679.34;10318012;28;20061;-52
2023/07/07 08:58:52;;;;;;;11.10;7.72;;;;;;;29.26;43.93;97688.34;10322820;28;20116;-51
2023/07/07 09:03:57;;;;;;;8.95;7.95;;;;;;;29.19;44.16;97681.75;10313211;28;20128;-53
2023/07/07 09:09:26;;;;;;;10.70;7.38;;;;;;;29.17;42.95;97680.16;10322727;28;20068;-51
2023/07/07 09:14:26;;;;;;;;;;;;;;;29.34;44.12;97684.22;10324472;28;20125;-50
2023/07/07 09:19:37;;;;;;;9.45;7.38;;;;;;;29.24;42.29;97673.38;10320913;28;19956;-50
2023/07/07 09:24:44;;;;;;;18.25;7.95;;;;;;;28.98;43.42;97678.91;10322690;28;20145;-50
2023/07/07 09:29:43;;;;;;;10.85;7.38;;;;;;;28.45;44.24;97675.81;10325651;28;20065;-49
2023/07/07 09:34:42;;;;;;;9.07;7.10;;;;;;;28.68;44.05;97676.78;10325314;28;20125;-51
2023/07/07 09:39:59;;;;;;;10.60;7.57;;;;;;;28.94;43.66;97671.25;10321691;28;20045;-51
2023/07/07 09:45:41;;;;;;;12.03;7.80;;;;;;;29.05;44.45;97674.81;10316119;28;20069;-52
2023/07/07 09:50:50;;;;;;;9.35;7.53;;;;;;;28.99;45.10;97667.28;10277413;28;20464;-51
2023/07/07 09:55:50;;;;;;;14.18;9.45;;;;;;;28.76;45.29;97646.81;10319152;28;20073;-52
2023/07/07 10:00:53;;;;;;;9.60;7.43;;;;;;;29.11;44.63;97672.63;10327920;28;20117;-52
2023/07/07 10:05:54;;;;;;;10.88;7.18;;;;;;;29.19;44.63;97675.56;10332265;28;20128;-52
2023/07/07 10:11:12;;;;;;;10.23;6.85;;;;;;;29.19;43.96;97672.88;10330577;28;20463;-49
2023/07/07 10:16:28;;;;;;;8.45;7.28;;;;;;;29.28;44.37;97658.84;10332304;28;20669;-52
2023/07/07 10:21:27;;;;;;;10.10;6.40;;;;;;;29.34;43.31;97647.63;10328088;28;20172;-53
2023/07/07 10:26:26;;;;;;;9.90;7.40;;;;;;;29.42;42.55;97658.59;10328893;28;20112;-52
2023/07/07 10:31:27;;;;;;;10.20;6.63;;;;;;;29.44;42.93;97648.63;10331939;28;20060;-52
2023/07/07 10:36:29;;;;;;;10.32;6.68;;;;;;;29.50;43.46;97653.47;10330978;28;20080;-52
2023/07/07 10:41:28;;;;;;;8.30;6.20;;;;;;;29.56;42.65;97608.50;10330837;28;20069;-50
2023/07/07 10:46:27;;;;;;;9.05;6.22;;;;;;;29.56;43.37;97654.81;10331917;28;20033;-51
2023/07/07 10:51:41;;;;;;;8.52;6.35;;;;;;;29.61;43.14;97633.03;10331075;28;20061;-50
2023/07/07 10:56:46;;;;;;;10.20;5.88;;;;;;;29.99;42.47;97626.41;10323041;28;20140;-52
2023/07/07 11:02:24;;;;;;;7.05;5.35;;;;;;;29.49;43.48;97629.53;10332292;28;20088;-49
2023/07/07 11:07:26;;;;;;;7.13;5.38;;;;;;;28.72;44.98;97624.00;10304598;28;20120;-51
2023/07/07 11:12:31;;;;;;;8.90;6.25;;;;;;;28.18;45.93;97585.38;10329115;28;20120;-51
2023/07/07 11:17:33;;;;;;;9.32;5.88;;;;;;;28.76;46.26;97615.63;10329009;28;20152;-50
2023/07/07 11:22:32;;;;;;;8.65;6.32;;;;;;;28.88;45.91;97612.00;10326773;28;20077;-52
2023/07/07 11:27:39;;;;;;;8.95;6.13;;;;;;;29.12;45.49;97620.91;10329616;28;20056;-52
2023/07/07 11:33:03;;;;;;;10.07;6.20;;;;;;;28.80;45.24;97608.22;10329625;28;20084;-52
2023/07/07 11:38:36;;;;;;;9.55;5.65;;;;;;;28.60;44.76;97593.72;10330337;28;20065;-51
2023/07/07 11:43:44;;;;;;;8.48;6.03;;;;;;;28.97;44.31;97607.78;10329497;28;20061;-51
2023/07/07 11:49:20;;;;;;;8.13;6.43;;;;;;;28.70;45.50;97608.09;10329627;28;20583;-52
2023/07/07 11:54:37;;;;;;;11.48;6.38;;;;;;;28.28;45.08;97613.03;10329774;28;20532;-52
2023/07/07 11:59:48;;;;;;;9.10;6.63;;;;;;;28.19;46.19;97611.91;10330258;28;20072;-52
2023/07/07 12:04:50;;;;;;;10.65;6.22;;;;;;;28.05;46.31;97625.41;10329016;28;20132;-52
2023/07/07 12:09:59;;;;;;;8.00;5.50;;;;;;;27.73;46.45;97623.31;10328765;28;20067;-49
2023/07/07 12:15:04;;;;;;;8.60;5.65;;;;;;;27.52;46.69;97624.88;10329381;28;20125;-51
2023/07/07 12:20:18;;;;;;;8.95;6.22;;;;;;;27.66;45.17;97614.06;10327125;28;20445;-51
2023/07/07 12:25:28;;;;;;;8.02;5.85;;;;;;;27.68;46.17;97612.13;10325441;28;20164;-51
2023/07/07 12:30:32;;;;;;;11.68;5.80;;;;;;;27.45;46.38;97618.22;10326105;28;20476;-50
2023/07/07 12:36:06;;;;;;;8.55;6.05;;;;;;;27.19;47.09;97615.63;10324790;28;20076;-51
2023/07/07 12:41:10;;;;;;;10.32;6.25;;;;;;;27.22;47.70;97620.72;10302340;28;20077;-51
2023/07/07 12:46:28;;;;;;;9.10;6.60;;;;;;;26.94;47.46;97598.69;10324879;28;20069;-50
2023/07/07 12:51:29;;;;;;;11.48;5.93;;;;;;;26.79;48.61;97597.06;10324479;28;20603;-49
2023/07/07 12:56:31;;;;;;;10.80;5.50;;;;;;;26.91;47.32;97596.25;10324300;28;20076;-51
2023/07/07 13:01:40;;;;;;;11.32;6.00;;;;;;;27.26;45.89;97597.38;10324431;28;20084;-50
2023/07/07 13:06:45;;;;;;;7.10;5.07;;;;;;;27.67;43.94;97583.75;10324883;28;20120;-51
2023/07/07 13:11:49;;;;;;;8.25;5.65;;;;;;;28.16;42.66;97585.47;10323830;28;20069;-52
2023/07/07 13:16:48;;;;;;;8.45;5.57;;;;;;;28.77;43.33;97595.13;10323271;28;20072;-52
2023/07/07 13:21:49;;;;;;;8.52;5.85;;;;;;;29.40;41.45;97591.03;10323771;28;20107;-51
2023/07/07 13:26:48;;;;;;;8.80;5.53;;;;;;;30.12;41.14;97589.66;10323768;28;20588;-50
2023/07/07 13:31:47;;;;;;;7.43;5.13;;;;;;;30.64;40.60;97577.22;10330833;28;20520;-50
2023/07/07 13:36:47;;;;;;;10.43;5.53;;;;;;;31.29;39.18;97582.34;10332040;28;20130;-49
2023/07/07 13:41:47;;;;;;;9.57;5.53;;;;;;;30.99;37.12;97578.72;10330660;28;20075;-49
2023/07/07 13:46:49;;;;;;;8.55;5.30;;;;;;;30.86;36.94;97589.59;10329629;28;20178;-49
2023/07/07 13:51:52;;;;;;;8.48;5.85;;;;;;;31.38;37.83;97595.78;10332667;28;20087;-50
2023/07/07 13:57:04;;;;;;;12.07;5.68;;;;;;;31.70;36.01;97573.28;10332262;28;20481;-50
2023/07/07 14:02:03;;;;;;;9.55;5.53;;;;;;;31.51;36.35;97584.84;10329173;28;20061;-52
2023/07/07 14:07:02;;;;;;;7.22;5.45;;;;;;;30.54;37.97;97584.34;10329761;28;20734;-52
2023/07/07 14:12:03;;;;;;;9.48;5.60;;;;;;;30.14;37.05;97582.34;10329738;28;20073;-50
2023/07/07 14:17:08;;;;;;;7.10;5.25;;;;;;;29.85;37.55;97584.75;10330192;28;20561;-50
2023/07/07 14:22:09;;;;;;;7.88;5.45;;;;;;;29.87;37.30;97586.31;10329072;28;20138;-51
2023/07/07 14:27:12;;;;;;;7.47;5.72;;;;;;;29.70;36.66;97586.84;10329388;28;20069;-49
2023/07/07 14:32:20;;;;;;;7.18;5.50;;;;;;;29.53;37.74;97595.38;10329457;28;20085;-51
2023/07/07 14:37:27;;;;;;;8.38;5.78;;;;;;;29.58;37.56;97602.06;10329203;28;20057;-50
2023/07/07 14:42:28;;;;;;;12.73;7.47;;;;;;;29.57;37.77;97578.94;10328967;28;20341;-50
2023/07/07 14:47:35;;;;;;;9.23;6.65;;;;;;;29.87;37.73;97597.03;10328247;28;20824;-50
2023/07/07 14:52:42;;;;;;;11.63;7.17;;;;;;;29.43;39.52;97582.75;10327730;28;20152;-51
2023/07/07 14:57:47;;;;;;;10.43;7.22;;;;;;;29.32;41.19;97597.94;10329304;28;20472;-49
2023/07/07 15:02:46;;;;;;;9.48;6.88;;;;;;;29.13;40.87;97591.34;10327892;28;20136;-52
2023/07/07 15:07:48;;;;;;;10.25;7.43;;;;;;;29.13;41.32;97583.34;10327528;28;20099;-52
2023/07/07 15:12:47;;;;;;;8.98;6.50;;;;;;;29.13;39.83;97587.84;10326036;28;20079;-52
2023/07/07 15:17:46;;;;;;;8.10;7.13;;;;;;;29.22;39.37;97587.94;10327241;28;21102;-51
2023/07/07 15:22:48;;;;;;;9.27;6.80;;;;;;;28.96;40.21;97583.84;10326564;28;20045;-49
2023/07/07 15:27:47;;;;;;;9.75;7.43;;;;;;;28.66;41.87;97583.44;10326939;28;20503;-48
2023/07/07 15:32:46;;;;;;;9.30;7.47;;;;;;;28.53;41.97;97582.66;10327548;28;20512;-50
2023/07/07 15:37:47;;;;;;;10.48;7.13;;;;;;;28.22;43.70;97587.69;10326344;28;20082;-51
2023/07/07 15:42:52;;;;;;;11.15;8.45;;;;;;;28.22;43.88;97593.03;10327526;28;20080;-51
2023/07/07 15:47:51;;;;;;;10.77;8.32;;;;;;;28.23;43.90;97608.03;10326056;28;20512;-50
2023/07/07 15:52:49;;;;;;;12.75;7.63;;;;;;;28.35;42.65;97600.94;10325047;28;20033;-49
2023/07/07 15:57:48;;;;;;;9.80;7.80;;;;;;;28.10;43.58;97615.25;10326272;28;20465;-50
2023/07/07 16:02:47;;;;;;;9.73;7.50;;;;;;;27.53;43.58;97581.25;10325672;28;20144;-51
2023/07/07 16:07:46;;;;;;;13.18;8.15;;;;;;;27.80;42.47;97627.22;10325176;28;20136;-51
2023/07/07 16:12:45;;;;;;;11.00;8.15;;;;;;;27.69;42.32;97627.16;10325557;28;20037;-52
2023/07/07 16:17:44;;;;;;;13.07;9.20;;;;;;;27.31;43.17;97641.41;10324258;28;20033;-50
2023/07/07 16:22:47;;;;;;;12.48;8.60;;;;;;;27.39;43.47;97646.16;10324814;28;20052;-51
2023/07/07 16:27:46;;;;;;;12.93;8.40;;;;;;;27.48;43.36;97645.53;10325726;28;20348;-51
2023/07/07 16:32:46;;;;;;;11.43;8.48;;;;;;;27.07;45.03;97653.75;10324775;28;20064;-52
2023/07/07 16:37:45;;;;;;;11.82;8.80;;;;;;;27.28;44.37;97654.91;10323932;28;20187;-50
2023/07/07 16:42:44;;;;;;;13.27;8.52;;;;;;;27.36;44.39;97655.22;10324481;28;20590;-52
2023/07/07 16:47:43;;;;;;;11.80;9.13;;;;;;;27.09;45.10;97657.16;10323916;28;20437;-49
2023/07/07 16:52:42;;;;;;;12.75;9.60;;;;;;;26.83;45.50;97667.81;10323832;28;20120;-52
2023/07/07 16:57:41;;;;;;;14.70;9.23;;;;;;;26.79;45.88;97664.50;10324556;28;20112;-50
2023/07/07 17:02:40;;;;;;;18.17;13.85;;;;;;;26.84;46.44;97663.34;10324084;28;20108;-52
2023/07/07 17:07:39;;;;;;;13.60;8.95;;;;;;;26.94;45.81;97659.94;10323433;28;20144;-54
2023/07/07 17:12:38;;;;;;;12.88;10.70;;;;;;;26.85;45.99;97665.06;10324545;28;20121;-48
2023/07/07 17:17:37;;;;;;;11.73;9.00;;;;;;;26.76;46.80;97669.16;10323683;28;20116;-50
2023/07/07 17:22:36;;;;;;;11.18;8.70;;;;;;;26.66;47.24;97676.94;10323291;28;20136;-50
2023/07/07 17:27:35;;;;;;;16.02;9.75;;;;;;;26.58;48.31;97680.13;10323353;28;20029;-51
2023/07/07 17:32:34;;;;;;;20.10;13.50;;;;;;;26.43;48.75;97686.44;10322918;28;20120;-49
2023/07/07 17:37:33;;;;;;;21.25;14.32;;;;;;;26.24;49.75;97700.13;10322688;28;20105;-51
2023/07/07 17:42:32;;;;;;;25.55;17.67;;;;;;;26.12;50.53;97696.44;10323843;28;20120;-51
2023/07/07 17:47:31;;;;;;;21.77;16.60;;;;;;;26.05;50.79;97702.25;10322279;28;20108;-49
2023/07/07 17:52:29;;;;;;;20.05;12.73;;;;;;;25.91;51.07;97705.78;10322574;28;20536;-51
2023/07/07 17:57:28;;;;;;;21.50;14.50;;;;;;;25.77;51.52;97713.81;10323294;28;20505;-51
2023/07/07 18:02:28;;;;;;;17.00;13.38;;;;;;;25.66;52.03;97710.00;10323299;28;20389;-48
2023/07/07 18:07:27;;;;;;;17.85;13.88;;;;;;;25.40;52.59;97721.38;10322408;28;20398;-50
2023/07/07 18:12:26;;;;;;;13.70;12.18;;;;;;;25.25;52.77;97731.16;10322392;28;20760;-50
2023/07/07 18:17:25;;;;;;;14.38;12.43;;;;;;;25.19;53.24;97732.38;10329315;28;20104;-50
2023/07/07 18:22:24;;;;;;;15.75;11.90;;;;;;;24.95;54.44;97715.28;10329354;28;20041;-51
2023/07/07 18:27:22;;;;;;;15.52;11.48;;;;;;;24.86;54.09;97745.84;10329834;28;20049;-48
2023/07/07 18:32:21;;;;;;;14.63;11.52;;;;;;;24.67;53.81;97744.25;10329436;28;20152;-49
2023/07/07 18:37:20;;;;;;;15.48;11.43;;;;;;;24.46;52.72;97743.69;10328685;28;20033;-48
2023/07/07 18:42:19;;;;;;;13.55;11.30;;;;;;;24.25;53.35;97753.72;10328897;28;20033;-51
2023/07/07 18:47:18;;;;;;;18.15;14.00;;;;;;;24.13;53.89;97758.84;10328893;28;20655;-48
2023/07/07 18:52:17;;;;;;;21.02;13.02;;;;;;;23.99;56.33;97760.47;10328329;28;20505;-48
2023/07/07 18:57:16;;;;;;;19.13;12.38;;;;;;;23.97;56.70;97759.69;10328237;28;20045;-51
2023/07/07 19:02:15;;;;;;;16.23;11.10;;;;;;;23.83;56.80;97741.91;10328485;28;20611;-51
2023/07/07 19:07:14;;;;;;;18.42;10.98;;;;;;;23.67;55.55;97746.31;10328024;28;20406;-49
2023/07/07 19:12:14;;;;;;;14.18;11.23;;;;;;;23.61;55.36;97754.63;10327972;28;20108;-50
2023/07/07 19:17:15;;;;;;;15.45;11.32;;;;;;;23.54;56.10;97767.34;10327260;28;20124;-50
2023/07/07 19:22:13;;;;;;;14.52;11.40;;;;;;;23.44;57.53;97763.41;10326858;28;20128;-48
2023/07/07 19:27:14;;;;;;;14.35;11.00;;;;;;;23.30;57.46;97768.59;10325394;28;20039;-50
2023/07/07 19:32:15;;;;;;;23.08;13.98;;;;;;;23.14;58.61;97763.22;10328714;28;20489;-50
2023/07/07 19:37:14;;;;;;;17.52;12.18;;;;;;;23.00;60.22;97767.47;10326667;28;20064;-49
2023/07/07 19:42:13;;;;;;;17.00;13.00;;;;;;;22.92;62.08;97777.56;10326315;28;20033;-49
2023/07/07 19:47:13;;;;;;;18.23;12.88;;;;;;;22.82;62.33;97788.72;10326571;28;20034;-48
2023/07/07 19:52:18;;;;;;;16.27;11.75;;;;;;;22.71;63.17;97797.97;10326308;28;20525;-49
2023/07/07 19:57:22;;;;;;;15.00;12.02;;;;;;;22.66;63.00;97805.28;10326117;28;20125;-51
2023/07/07 20:02:22;;;;;;;17.17;12.85;;;;;;;22.60;63.19;97795.88;10326049;28;20080;-52
2023/07/07 20:07:22;;;;;;;17.33;11.80;;;;;;;22.59;63.46;97788.00;10325593;28;20080;-49
2023/07/07 20:12:23;;;;;;;21.40;13.15;;;;;;;22.57;64.09;97780.13;10325283;28;20080;-51
2023/07/07 20:17:21;;;;;;;15.73;11.80;;;;;;;22.45;63.05;97785.19;10325681;28;20590;-52
2023/07/07 20:22:20;;;;;;;14.65;10.70;;;;;;;22.36;62.88;97782.03;10324638;28;20527;-49
2023/07/07 20:27:19;;;;;;;14.00;11.40;;;;;;;22.17;63.43;97781.22;10324309;28;20104;-50
2023/07/07 20:32:18;;;;;;;14.40;11.20;;;;;;;22.03;63.92;97781.03;10324931;28;20120;-49
2023/07/07 20:37:17;;;;;;;13.98;10.45;;;;;;;21.99;64.27;97782.94;10324065;28;20023;-49
2023/07/07 20:42:16;;;;;;;16.02;11.02;;;;;;;21.93;64.42;97796.41;10321907;28;20029;-52
2023/07/07 20:47:15;;;;;;;17.02;10.82;;;;;;;21.90;64.65;97810.63;10324469;28;20033;-52
2023/07/07 20:52:14;;;;;;;18.27;10.68;;;;;;;21.81;64.48;97811.03;10324042;28;20484;-48
2023/07/07 20:57:13;;;;;;;14.55;10.88;;;;;;;21.90;64.32;97801.84;10324110;28;20432;-49
2023/07/07 21:02:13;;;;;;;16.98;11.07;;;;;;;21.90;65.09;97799.22;10323223;28;20045;-51
2023/07/07 21:07:12;;;;;;;15.07;11.20;;;;;;;21.94;65.27;97806.94;10323522;28;20136;-51
2023/07/07 21:12:11;;;;;;;16.95;11.95;;;;;;;21.94;65.13;97812.22;10323907;28;20088;-51
2023/07/07 21:17:12;;;;;;;16.00;10.82;;;;;;;21.60;65.38;97767.13;10324502;28;20036;-51
2023/07/07 21:22:11;;;;;;;16.63;11.93;;;;;;;21.99;65.46;97817.28;10323733;28;20183;-49
2023/07/07 21:27:10;;;;;;;13.18;11.02;;;;;;;22.01;65.88;97819.88;10323476;28;20051;-51
2023/07/07 21:32:09;;;;;;;15.05;11.57;;;;;;;22.03;65.78;97828.59;10323599;28;20045;-50
2023/07/07 21:37:10;;;;;;;15.90;11.63;;;;;;;22.08;65.50;97826.56;10322074;28;20064;-51
2023/07/07 21:42:10;;;;;;;14.00;9.93;;;;;;;22.18;64.98;97835.81;10323905;28;20084;-49
2023/07/07 21:47:14;;;;;;;16.80;11.90;;;;;;;22.24;64.71;97835.50;10323036;28;20659;-49
2023/07/07 21:52:16;;;;;;;17.20;11.25;;;;;;;22.31;64.86;97842.22;10329786;28;20131;-50
2023/07/07 21:57:39;;;;;;;13.63;10.55;;;;;;;22.25;66.17;97837.25;10330846;28;20056;-50
2023/07/07 22:02:38;;;;;;;14.60;11.50;;;;;;;22.23;67.30;97843.53;10331221;28;20061;-52
2023/07/07 22:07:37;;;;;;;14.00;11.25;;;;;;;22.16;67.34;97837.66;10330953;28;20378;-49
2023/07/07 22:12:36;;;;;;;17.35;11.43;;;;;;;22.11;67.56;97835.25;10330237;28;20059;-49
2023/07/07 22:17:35;;;;;;;13.23;10.98;;;;;;;22.10;68.16;97835.31;10330214;28;20112;-51
2023/07/07 22:22:34;;;;;;;15.52;11.48;;;;;;;22.10;68.58;97827.38;10330347;28;20125;-52
2023/07/07 22:27:33;;;;;;;15.82;10.57;;;;;;;22.06;69.05;97815.22;10329532;28;20132;-50
2023/07/07 22:32:32;;;;;;;14.85;10.40;;;;;;;22.00;68.41;97811.09;10329498;28;20481;-49
2023/07/07 22:37:31;;;;;;;13.52;10.10;;;;;;;21.96;68.06;97796.25;10329699;28;20408;-51
2023/07/07 22:42:31;;;;;;;11.82;9.48;;;;;;;21.97;67.81;97798.84;10328947;28;20042;-49
2023/07/07 22:47:30;;;;;;;11.48;9.25;;;;;;;21.96;67.03;97785.69;10328946;28;20026;-51
2023/07/07 22:52:29;;;;;;;14.10;9.93;;;;;;;21.91;66.51;97779.78;10328774;28;20052;-48
2023/07/07 22:57:28;;;;;;;11.73;8.88;;;;;;;21.94;65.51;97796.34;10328447;28;20021;-51
2023/07/07 23:02:27;;;;;;;15.93;9.20;;;;;;;21.93;65.23;97805.19;10328368;28;20055;-50